sensor_id;sensor_type;location;lat;lon;timestamp;P1;durP1;ratioP1;P2;durP2;ratioP2
11305;SDS011;5708;50.660;6.778;2023-08-06T00:00:22;2.78;;;1.58;;
11305;SDS011;5708;50.660;6.778;2023-08-06T00:02:48;2.90;;;1.50;;
11305;SDS011;5708;50.660;6.778;2023-08-06T00:05:13;2.80;;;1.70;;
11305;SDS011;5708;50.660;6.778;2023-08-06T00:07:42;3.65;;;1.45;;
11305;SDS011;5708;50.660;6.778;2023-08-06T00:10:08;4.15;;;1.50;;
11305;SDS011;5708;50.660;6.778;2023-08-06T00:12:33;4.70;;;1.73;;
11305;SDS011;5708;50.660;6.778;2023-08-06T00:14:58;2.97;;;1.58;;
11305;SDS011;5708;50.660;6.778;2023-08-06T00:17:24;4.07;;;1.92;;
11305;SDS011;5708;50.660;6.778;2023-08-06T00:19:49;4.15;;;1.50;;
11305;SDS011;5708;50.660;6.778;2023-08-06T00:22:14;6.28;;;1.83;;
11305;SDS011;5708;50.660;6.778;2023-08-06T00:24:39;2.83;;;1.52;;
11305;SDS011;5708;50.660;6.778;2023-08-06T00:27:05;6.68;;;1.65;;
11305;SDS011;5708;50.660;6.778;2023-08-06T00:29:32;3.05;;;1.42;;
11305;SDS011;5708;50.660;6.778;2023-08-06T00:31:57;3.17;;;1.63;;
11305;SDS011;5708;50.660;6.778;2023-08-06T00:34:22;2.85;;;1.50;;
11305;SDS011;5708;50.660;6.778;2023-08-06T00:36:47;4.70;;;1.50;;
11305;SDS011;5708;50.660;6.778;2023-08-06T00:39:13;3.83;;;1.50;;
11305;SDS011;5708;50.660;6.778;2023-08-06T00:41:38;2.35;;;1.35;;
11305;SDS011;5708;50.660;6.778;2023-08-06T00:44:04;4.97;;;1.65;;
11305;SDS011;5708;50.660;6.778;2023-08-06T00:46:29;2.58;;;1.40;;
11305;SDS011;5708;50.660;6.778;2023-08-06T00:48:55;4.07;;;1.50;;
11305;SDS011;5708;50.660;6.778;2023-08-06T00:51:20;4.50;;;1.55;;
11305;SDS011;5708;50.660;6.778;2023-08-06T00:53:46;4.18;;;1.25;;
11305;SDS011;5708;50.660;6.778;2023-08-06T00:56:12;3.78;;;1.67;;
11305;SDS011;5708;50.660;6.778;2023-08-06T00:58:38;4.07;;;1.60;;
11305;SDS011;5708;50.660;6.778;2023-08-06T01:01:03;2.40;;;1.38;;
11305;SDS011;5708;50.660;6.778;2023-08-06T01:03:28;2.53;;;1.13;;
11305;SDS011;5708;50.660;6.778;2023-08-06T01:05:54;2.75;;;1.40;;
11305;SDS011;5708;50.660;6.778;2023-08-06T01:11:13;5.07;;;1.52;;
11305;SDS011;5708;50.660;6.778;2023-08-06T01:13:45;3.00;;;1.35;;
11305;SDS011;5708;50.660;6.778;2023-08-06T01:16:19;4.95;;;1.67;;
11305;SDS011;5708;50.660;6.778;2023-08-06T01:18:47;4.63;;;1.60;;
11305;SDS011;5708;50.660;6.778;2023-08-06T01:21:14;2.30;;;1.38;;
11305;SDS011;5708;50.660;6.778;2023-08-06T01:23:40;4.03;;;1.50;;
11305;SDS011;5708;50.660;6.778;2023-08-06T01:26:11;3.90;;;1.58;;
11305;SDS011;5708;50.660;6.778;2023-08-06T01:29:05;5.07;;;1.58;;
11305;SDS011;5708;50.660;6.778;2023-08-06T01:31:38;3.63;;;1.40;;
11305;SDS011;5708;50.660;6.778;2023-08-06T01:34:09;3.75;;;1.42;;
11305;SDS011;5708;50.660;6.778;2023-08-06T01:36:36;5.07;;;1.88;;
11305;SDS011;5708;50.660;6.778;2023-08-06T01:39:02;5.18;;;1.42;;
11305;SDS011;5708;50.660;6.778;2023-08-06T01:41:29;4.20;;;1.75;;
11305;SDS011;5708;50.660;6.778;2023-08-06T01:43:55;4.75;;;1.50;;
11305;SDS011;5708;50.660;6.778;2023-08-06T01:46:20;3.55;;;1.58;;
11305;SDS011;5708;50.660;6.778;2023-08-06T01:48:45;5.40;;;1.70;;
11305;SDS011;5708;50.660;6.778;2023-08-06T01:51:10;5.82;;;1.77;;
11305;SDS011;5708;50.660;6.778;2023-08-06T01:53:36;4.07;;;1.48;;
11305;SDS011;5708;50.660;6.778;2023-08-06T01:56:01;5.82;;;1.83;;
11305;SDS011;5708;50.660;6.778;2023-08-06T01:58:26;4.38;;;1.88;;
11305;SDS011;5708;50.660;6.778;2023-08-06T02:00:52;2.92;;;1.50;;
11305;SDS011;5708;50.660;6.778;2023-08-06T02:03:17;3.10;;;1.45;;
11305;SDS011;5708;50.660;6.778;2023-08-06T02:05:42;4.60;;;1.55;;
11305;SDS011;5708;50.660;6.778;2023-08-06T02:08:08;4.43;;;1.67;;
11305;SDS011;5708;50.660;6.778;2023-08-06T02:10:33;7.07;;;2.00;;
11305;SDS011;5708;50.660;6.778;2023-08-06T02:12:59;3.83;;;1.55;;
11305;SDS011;5708;50.660;6.778;2023-08-06T02:15:24;7.13;;;1.55;;
11305;SDS011;5708;50.660;6.778;2023-08-06T02:17:49;6.07;;;1.60;;
11305;SDS011;5708;50.660;6.778;2023-08-06T02:20:14;6.38;;;1.55;;
11305;SDS011;5708;50.660;6.778;2023-08-06T02:22:40;5.57;;;1.83;;
11305;SDS011;5708;50.660;6.778;2023-08-06T02:25:05;6.35;;;1.75;;
11305;SDS011;5708;50.660;6.778;2023-08-06T02:27:31;7.38;;;1.73;;
11305;SDS011;5708;50.660;6.778;2023-08-06T02:29:56;5.72;;;2.08;;
11305;SDS011;5708;50.660;6.778;2023-08-06T02:32:21;5.50;;;1.90;;
11305;SDS011;5708;50.660;6.778;2023-08-06T02:34:47;7.38;;;2.00;;
11305;SDS011;5708;50.660;6.778;2023-08-06T02:37:12;4.05;;;1.70;;
11305;SDS011;5708;50.660;6.778;2023-08-06T02:39:37;6.00;;;1.50;;
11305;SDS011;5708;50.660;6.778;2023-08-06T02:42:05;5.63;;;1.73;;
11305;SDS011;5708;50.660;6.778;2023-08-06T02:44:31;7.60;;;1.88;;
11305;SDS011;5708;50.660;6.778;2023-08-06T02:46:56;5.93;;;1.70;;
11305;SDS011;5708;50.660;6.778;2023-08-06T02:49:22;6.03;;;1.60;;
11305;SDS011;5708;50.660;6.778;2023-08-06T02:51:47;4.22;;;1.50;;
11305;SDS011;5708;50.660;6.778;2023-08-06T02:54:12;3.67;;;1.35;;
11305;SDS011;5708;50.660;6.778;2023-08-06T02:56:38;4.18;;;1.38;;
11305;SDS011;5708;50.660;6.778;2023-08-06T02:59:03;4.03;;;1.65;;
11305;SDS011;5708;50.660;6.778;2023-08-06T03:01:28;3.30;;;1.40;;
11305;SDS011;5708;50.660;6.778;2023-08-06T03:03:54;6.03;;;1.98;;
11305;SDS011;5708;50.660;6.778;2023-08-06T03:06:19;6.38;;;1.80;;
11305;SDS011;5708;50.660;6.778;2023-08-06T03:08:44;5.03;;;1.33;;
11305;SDS011;5708;50.660;6.778;2023-08-06T03:11:10;4.22;;;1.60;;
11305;SDS011;5708;50.660;6.778;2023-08-06T03:13:35;4.18;;;1.40;;
11305;SDS011;5708;50.660;6.778;2023-08-06T03:16:00;3.45;;;1.38;;
11305;SDS011;5708;50.660;6.778;2023-08-06T03:18:26;5.13;;;1.60;;
11305;SDS011;5708;50.660;6.778;2023-08-06T03:20:52;5.53;;;1.70;;
11305;SDS011;5708;50.660;6.778;2023-08-06T03:23:17;5.68;;;1.50;;
11305;SDS011;5708;50.660;6.778;2023-08-06T03:25:43;4.47;;;1.63;;
11305;SDS011;5708;50.660;6.778;2023-08-06T03:28:08;4.38;;;1.52;;
11305;SDS011;5708;50.660;6.778;2023-08-06T03:30:34;3.88;;;1.67;;
11305;SDS011;5708;50.660;6.778;2023-08-06T03:32:59;4.25;;;1.30;;
11305;SDS011;5708;50.660;6.778;2023-08-06T03:35:24;4.53;;;1.48;;
11305;SDS011;5708;50.660;6.778;2023-08-06T03:37:49;3.85;;;1.35;;
11305;SDS011;5708;50.660;6.778;2023-08-06T03:40:15;2.88;;;1.50;;
11305;SDS011;5708;50.660;6.778;2023-08-06T03:42:40;4.10;;;1.30;;
11305;SDS011;5708;50.660;6.778;2023-08-06T03:45:06;4.15;;;1.38;;
11305;SDS011;5708;50.660;6.778;2023-08-06T03:47:32;6.00;;;1.70;;
11305;SDS011;5708;50.660;6.778;2023-08-06T03:49:57;4.82;;;1.80;;
11305;SDS011;5708;50.660;6.778;2023-08-06T03:52:22;3.47;;;1.55;;
11305;SDS011;5708;50.660;6.778;2023-08-06T03:54:48;3.28;;;1.65;;
11305;SDS011;5708;50.660;6.778;2023-08-06T03:57:13;4.10;;;1.65;;
11305;SDS011;5708;50.660;6.778;2023-08-06T03:59:38;4.68;;;1.65;;
11305;SDS011;5708;50.660;6.778;2023-08-06T04:02:04;4.57;;;1.48;;
11305;SDS011;5708;50.660;6.778;2023-08-06T04:04:29;6.07;;;1.63;;
11305;SDS011;5708;50.660;6.778;2023-08-06T04:06:54;3.63;;;1.20;;
11305;SDS011;5708;50.660;6.778;2023-08-06T04:09:19;5.30;;;1.83;;
11305;SDS011;5708;50.660;6.778;2023-08-06T04:11:45;4.88;;;1.58;;
11305;SDS011;5708;50.660;6.778;2023-08-06T04:14:10;3.67;;;1.60;;
11305;SDS011;5708;50.660;6.778;2023-08-06T04:16:36;3.60;;;1.17;;
11305;SDS011;5708;50.660;6.778;2023-08-06T04:19:01;4.40;;;1.50;;
11305;SDS011;5708;50.660;6.778;2023-08-06T04:21:26;4.10;;;1.30;;
11305;SDS011;5708;50.660;6.778;2023-08-06T04:23:52;3.78;;;1.50;;
11305;SDS011;5708;50.660;6.778;2023-08-06T04:26:17;3.17;;;1.30;;
11305;SDS011;5708;50.660;6.778;2023-08-06T04:28:42;3.03;;;1.35;;
11305;SDS011;5708;50.660;6.778;2023-08-06T04:31:08;3.17;;;1.30;;
11305;SDS011;5708;50.660;6.778;2023-08-06T04:33:33;4.65;;;1.30;;
11305;SDS011;5708;50.660;6.778;2023-08-06T04:35:59;5.57;;;1.25;;
11305;SDS011;5708;50.660;6.778;2023-08-06T04:38:24;2.25;;;1.10;;
11305;SDS011;5708;50.660;6.778;2023-08-06T04:40:52;2.55;;;1.00;;
11305;SDS011;5708;50.660;6.778;2023-08-06T04:43:18;1.52;;;0.93;;
11305;SDS011;5708;50.660;6.778;2023-08-06T04:45:46;2.35;;;1.13;;
11305;SDS011;5708;50.660;6.778;2023-08-06T04:48:15;4.28;;;1.40;;
11305;SDS011;5708;50.660;6.778;2023-08-06T04:50:44;1.65;;;1.00;;
11305;SDS011;5708;50.660;6.778;2023-08-06T04:53:10;1.92;;;0.98;;
11305;SDS011;5708;50.660;6.778;2023-08-06T04:55:35;2.60;;;0.95;;
11305;SDS011;5708;50.660;6.778;2023-08-06T04:58:00;2.25;;;1.00;;
11305;SDS011;5708;50.660;6.778;2023-08-06T05:00:26;2.90;;;1.10;;
11305;SDS011;5708;50.660;6.778;2023-08-06T05:02:51;2.90;;;0.90;;
11305;SDS011;5708;50.660;6.778;2023-08-06T05:05:16;2.03;;;0.90;;
11305;SDS011;5708;50.660;6.778;2023-08-06T05:07:42;5.03;;;1.00;;
11305;SDS011;5708;50.660;6.778;2023-08-06T05:10:07;1.75;;;0.90;;
11305;SDS011;5708;50.660;6.778;2023-08-06T05:12:32;1.85;;;0.80;;
11305;SDS011;5708;50.660;6.778;2023-08-06T05:14:58;2.65;;;0.70;;
11305;SDS011;5708;50.660;6.778;2023-08-06T05:17:23;1.10;;;0.63;;
11305;SDS011;5708;50.660;6.778;2023-08-06T05:19:49;2.13;;;0.75;;
11305;SDS011;5708;50.660;6.778;2023-08-06T05:22:14;2.05;;;0.80;;
11305;SDS011;5708;50.660;6.778;2023-08-06T05:24:39;1.95;;;0.70;;
11305;SDS011;5708;50.660;6.778;2023-08-06T05:27:05;1.98;;;0.82;;
11305;SDS011;5708;50.660;6.778;2023-08-06T05:29:30;1.00;;;0.57;;
11305;SDS011;5708;50.660;6.778;2023-08-06T05:31:56;1.02;;;0.70;;
11305;SDS011;5708;50.660;6.778;2023-08-06T05:34:21;1.95;;;0.90;;
11305;SDS011;5708;50.660;6.778;2023-08-06T05:36:46;2.17;;;0.80;;
11305;SDS011;5708;50.660;6.778;2023-08-06T05:39:11;1.33;;;0.82;;
11305;SDS011;5708;50.660;6.778;2023-08-06T05:41:37;2.13;;;0.90;;
11305;SDS011;5708;50.660;6.778;2023-08-06T05:44:02;1.80;;;0.80;;
11305;SDS011;5708;50.660;6.778;2023-08-06T05:46:27;1.75;;;0.80;;
11305;SDS011;5708;50.660;6.778;2023-08-06T05:48:53;2.95;;;0.80;;
11305;SDS011;5708;50.660;6.778;2023-08-06T05:51:18;1.15;;;0.68;;
11305;SDS011;5708;50.660;6.778;2023-08-06T05:53:44;2.42;;;0.70;;
11305;SDS011;5708;50.660;6.778;2023-08-06T05:56:11;2.53;;;0.85;;
11305;SDS011;5708;50.660;6.778;2023-08-06T05:58:37;3.72;;;0.70;;
11305;SDS011;5708;50.660;6.778;2023-08-06T06:01:02;0.98;;;0.70;;
11305;SDS011;5708;50.660;6.778;2023-08-06T06:03:27;1.67;;;0.70;;
11305;SDS011;5708;50.660;6.778;2023-08-06T06:05:53;2.22;;;0.80;;
11305;SDS011;5708;50.660;6.778;2023-08-06T06:08:18;2.17;;;0.70;;
11305;SDS011;5708;50.660;6.778;2023-08-06T06:10:43;1.45;;;0.85;;
11305;SDS011;5708;50.660;6.778;2023-08-06T06:13:09;1.00;;;0.65;;
11305;SDS011;5708;50.660;6.778;2023-08-06T06:15:34;1.65;;;0.50;;
11305;SDS011;5708;50.660;6.778;2023-08-06T06:17:59;1.92;;;0.55;;
11305;SDS011;5708;50.660;6.778;2023-08-06T06:20:25;2.80;;;0.75;;
11305;SDS011;5708;50.660;6.778;2023-08-06T06:22:50;1.00;;;0.68;;
11305;SDS011;5708;50.660;6.778;2023-08-06T06:25:15;1.75;;;0.80;;
11305;SDS011;5708;50.660;6.778;2023-08-06T06:27:41;1.15;;;0.73;;
11305;SDS011;5708;50.660;6.778;2023-08-06T06:30:06;2.67;;;0.80;;
11305;SDS011;5708;50.660;6.778;2023-08-06T06:32:32;3.10;;;1.08;;
11305;SDS011;5708;50.660;6.778;2023-08-06T06:34:59;3.10;;;1.17;;
11305;SDS011;5708;50.660;6.778;2023-08-06T06:37:24;2.65;;;1.20;;
11305;SDS011;5708;50.660;6.778;2023-08-06T06:39:49;2.33;;;1.20;;
11305;SDS011;5708;50.660;6.778;2023-08-06T06:42:15;3.90;;;1.20;;
11305;SDS011;5708;50.660;6.778;2023-08-06T06:44:40;3.42;;;1.40;;
11305;SDS011;5708;50.660;6.778;2023-08-06T06:47:05;3.03;;;1.30;;
11305;SDS011;5708;50.660;6.778;2023-08-06T06:49:31;1.95;;;1.33;;
11305;SDS011;5708;50.660;6.778;2023-08-06T06:51:56;2.67;;;1.25;;
11305;SDS011;5708;50.660;6.778;2023-08-06T06:54:21;4.60;;;1.10;;
11305;SDS011;5708;50.660;6.778;2023-08-06T06:56:46;1.77;;;1.10;;
11305;SDS011;5708;50.660;6.778;2023-08-06T06:59:12;2.60;;;1.30;;
11305;SDS011;5708;50.660;6.778;2023-08-06T07:01:37;3.85;;;1.23;;
11305;SDS011;5708;50.660;6.778;2023-08-06T07:04:02;3.92;;;1.20;;
11305;SDS011;5708;50.660;6.778;2023-08-06T07:06:30;4.70;;;1.13;;
11305;SDS011;5708;50.660;6.778;2023-08-06T07:08:55;3.28;;;1.30;;
11305;SDS011;5708;50.660;6.778;2023-08-06T07:11:21;2.58;;;1.10;;
11305;SDS011;5708;50.660;6.778;2023-08-06T07:13:46;2.03;;;1.00;;
11305;SDS011;5708;50.660;6.778;2023-08-06T07:16:11;1.80;;;1.00;;
11305;SDS011;5708;50.660;6.778;2023-08-06T07:18:37;2.70;;;1.10;;
11305;SDS011;5708;50.660;6.778;2023-08-06T07:21:02;2.92;;;1.10;;
11305;SDS011;5708;50.660;6.778;2023-08-06T07:23:27;4.43;;;1.40;;
11305;SDS011;5708;50.660;6.778;2023-08-06T07:25:53;2.20;;;1.10;;
11305;SDS011;5708;50.660;6.778;2023-08-06T07:28:18;2.78;;;1.20;;
11305;SDS011;5708;50.660;6.778;2023-08-06T07:30:44;3.15;;;1.00;;
11305;SDS011;5708;50.660;6.778;2023-08-06T07:33:10;4.95;;;1.50;;
11305;SDS011;5708;50.660;6.778;2023-08-06T07:35:35;2.35;;;1.10;;
11305;SDS011;5708;50.660;6.778;2023-08-06T07:38:00;2.15;;;1.08;;
11305;SDS011;5708;50.660;6.778;2023-08-06T07:40:26;2.33;;;0.90;;
11305;SDS011;5708;50.660;6.778;2023-08-06T07:42:51;1.83;;;0.98;;
11305;SDS011;5708;50.660;6.778;2023-08-06T07:45:16;3.55;;;1.10;;
11305;SDS011;5708;50.660;6.778;2023-08-06T07:47:42;2.92;;;1.13;;
11305;SDS011;5708;50.660;6.778;2023-08-06T07:50:08;4.50;;;1.10;;
11305;SDS011;5708;50.660;6.778;2023-08-06T07:52:33;2.30;;;1.40;;
11305;SDS011;5708;50.660;6.778;2023-08-06T07:54:59;2.03;;;1.10;;
11305;SDS011;5708;50.660;6.778;2023-08-06T07:57:25;3.42;;;1.50;;
11305;SDS011;5708;50.660;6.778;2023-08-06T07:59:50;2.35;;;1.17;;
11305;SDS011;5708;50.660;6.778;2023-08-06T08:02:18;2.03;;;1.23;;
11305;SDS011;5708;50.660;6.778;2023-08-06T08:04:43;2.95;;;1.40;;
11305;SDS011;5708;50.660;6.778;2023-08-06T08:07:09;3.92;;;1.10;;
11305;SDS011;5708;50.660;6.778;2023-08-06T08:09:35;2.55;;;1.05;;
11305;SDS011;5708;50.660;6.778;2023-08-06T08:12:01;1.95;;;1.13;;
11305;SDS011;5708;50.660;6.778;2023-08-06T08:14:27;5.40;;;1.30;;
11305;SDS011;5708;50.660;6.778;2023-08-06T08:16:53;2.28;;;1.10;;
11305;SDS011;5708;50.660;6.778;2023-08-06T08:19:19;2.67;;;1.33;;
11305;SDS011;5708;50.660;6.778;2023-08-06T08:21:45;2.10;;;1.20;;
11305;SDS011;5708;50.660;6.778;2023-08-06T08:24:10;3.80;;;1.30;;
11305;SDS011;5708;50.660;6.778;2023-08-06T08:26:35;3.22;;;1.13;;
11305;SDS011;5708;50.660;6.778;2023-08-06T08:29:01;3.08;;;1.17;;
11305;SDS011;5708;50.660;6.778;2023-08-06T08:31:27;3.72;;;1.48;;
11305;SDS011;5708;50.660;6.778;2023-08-06T08:33:53;2.75;;;1.50;;
11305;SDS011;5708;50.660;6.778;2023-08-06T08:36:19;4.95;;;1.30;;
11305;SDS011;5708;50.660;6.778;2023-08-06T08:38:44;2.28;;;1.50;;
11305;SDS011;5708;50.660;6.778;2023-08-06T08:41:09;1.25;;;1.00;;
11305;SDS011;5708;50.660;6.778;2023-08-06T08:43:35;3.30;;;1.02;;
11305;SDS011;5708;50.660;6.778;2023-08-06T08:46:00;2.17;;;1.05;;
11305;SDS011;5708;50.660;6.778;2023-08-06T08:48:27;1.33;;;0.70;;
11305;SDS011;5708;50.660;6.778;2023-08-06T08:50:52;1.90;;;0.80;;
11305;SDS011;5708;50.660;6.778;2023-08-06T08:53:18;2.35;;;0.90;;
11305;SDS011;5708;50.660;6.778;2023-08-06T08:55:47;2.95;;;1.17;;
11305;SDS011;5708;50.660;6.778;2023-08-06T08:58:14;1.35;;;0.60;;
11305;SDS011;5708;50.660;6.778;2023-08-06T09:00:43;1.48;;;0.80;;
11305;SDS011;5708;50.660;6.778;2023-08-06T09:03:11;1.42;;;0.73;;
11305;SDS011;5708;50.660;6.778;2023-08-06T09:05:36;4.47;;;0.98;;
11305;SDS011;5708;50.660;6.778;2023-08-06T09:08:05;1.67;;;0.60;;
11305;SDS011;5708;50.660;6.778;2023-08-06T09:10:30;0.75;;;0.38;;
11305;SDS011;5708;50.660;6.778;2023-08-06T09:12:56;1.42;;;0.32;;
11305;SDS011;5708;50.660;6.778;2023-08-06T09:15:25;0.15;;;0.15;;
11305;SDS011;5708;50.660;6.778;2023-08-06T09:17:52;1.33;;;0.30;;
11305;SDS011;5708;50.660;6.778;2023-08-06T09:20:17;0.43;;;0.22;;
11305;SDS011;5708;50.660;6.778;2023-08-06T09:22:43;1.13;;;0.28;;
11305;SDS011;5708;50.660;6.778;2023-08-06T09:25:10;2.58;;;0.43;;
11305;SDS011;5708;50.660;6.778;2023-08-06T09:27:36;2.00;;;0.50;;
11305;SDS011;5708;50.660;6.778;2023-08-06T09:30:02;2.10;;;0.45;;
11305;SDS011;5708;50.660;6.778;2023-08-06T09:32:43;2.40;;;0.60;;
11305;SDS011;5708;50.660;6.778;2023-08-06T09:35:13;1.55;;;0.60;;
11305;SDS011;5708;50.660;6.778;2023-08-06T09:37:40;3.30;;;0.60;;
11305;SDS011;5708;50.660;6.778;2023-08-06T09:40:21;1.23;;;0.70;;
11305;SDS011;5708;50.660;6.778;2023-08-06T09:42:53;1.38;;;0.75;;
11305;SDS011;5708;50.660;6.778;2023-08-06T09:45:19;2.35;;;1.10;;
11305;SDS011;5708;50.660;6.778;2023-08-06T09:47:44;2.90;;;1.10;;
11305;SDS011;5708;50.660;6.778;2023-08-06T09:50:19;2.50;;;1.33;;
11305;SDS011;5708;50.660;6.778;2023-08-06T09:52:46;2.58;;;1.10;;
11305;SDS011;5708;50.660;6.778;2023-08-06T09:55:13;2.22;;;1.00;;
11305;SDS011;5708;50.660;6.778;2023-08-06T09:57:39;3.90;;;1.10;;
11305;SDS011;5708;50.660;6.778;2023-08-06T10:00:06;1.98;;;1.20;;
11305;SDS011;5708;50.660;6.778;2023-08-06T10:02:35;2.95;;;1.50;;
11305;SDS011;5708;50.660;6.778;2023-08-06T10:05:01;4.30;;;1.67;;
11305;SDS011;5708;50.660;6.778;2023-08-06T10:07:28;3.10;;;1.60;;
11305;SDS011;5708;50.660;6.778;2023-08-06T10:09:54;3.95;;;1.75;;
11305;SDS011;5708;50.660;6.778;2023-08-06T10:12:20;4.18;;;1.58;;
11305;SDS011;5708;50.660;6.778;2023-08-06T10:14:46;3.03;;;1.40;;
11305;SDS011;5708;50.660;6.778;2023-08-06T10:17:12;3.58;;;1.65;;
11305;SDS011;5708;50.660;6.778;2023-08-06T10:19:37;5.05;;;1.80;;
11305;SDS011;5708;50.660;6.778;2023-08-06T10:22:13;4.28;;;1.63;;
11305;SDS011;5708;50.660;6.778;2023-08-06T10:24:46;4.85;;;1.52;;
11305;SDS011;5708;50.660;6.778;2023-08-06T10:27:13;5.65;;;1.77;;
11305;SDS011;5708;50.660;6.778;2023-08-06T10:29:38;5.25;;;1.70;;
11305;SDS011;5708;50.660;6.778;2023-08-06T10:32:04;4.47;;;1.92;;
11305;SDS011;5708;50.660;6.778;2023-08-06T10:37:35;4.57;;;1.63;;
11305;SDS011;5708;50.660;6.778;2023-08-06T10:40:01;11.38;;;2.15;;
11305;SDS011;5708;50.660;6.778;2023-08-06T10:42:28;7.60;;;1.40;;
11305;SDS011;5708;50.660;6.778;2023-08-06T10:47:41;6.03;;;1.70;;
11305;SDS011;5708;50.660;6.778;2023-08-06T10:50:07;3.78;;;1.20;;
11305;SDS011;5708;50.660;6.778;2023-08-06T10:52:35;7.68;;;1.63;;
11305;SDS011;5708;50.660;6.778;2023-08-06T10:55:00;3.13;;;1.23;;
11305;SDS011;5708;50.660;6.778;2023-08-06T10:57:26;7.93;;;1.60;;
11305;SDS011;5708;50.660;6.778;2023-08-06T10:59:51;5.45;;;1.60;;
11305;SDS011;5708;50.660;6.778;2023-08-06T11:02:16;8.80;;;1.88;;
11305;SDS011;5708;50.660;6.778;2023-08-06T11:04:42;5.22;;;1.45;;
11305;SDS011;5708;50.660;6.778;2023-08-06T11:07:07;5.97;;;1.30;;
11305;SDS011;5708;50.660;6.778;2023-08-06T11:09:32;6.55;;;1.40;;
11305;SDS011;5708;50.660;6.778;2023-08-06T11:11:58;6.18;;;1.48;;
11305;SDS011;5708;50.660;6.778;2023-08-06T11:14:23;3.97;;;1.48;;
11305;SDS011;5708;50.660;6.778;2023-08-06T11:16:48;5.35;;;1.60;;
11305;SDS011;5708;50.660;6.778;2023-08-06T11:19:15;4.93;;;1.90;;
11305;SDS011;5708;50.660;6.778;2023-08-06T11:21:41;5.10;;;2.10;;
11305;SDS011;5708;50.660;6.778;2023-08-06T11:24:09;5.07;;;1.85;;
11305;SDS011;5708;50.660;6.778;2023-08-06T11:26:36;6.35;;;2.20;;
11305;SDS011;5708;50.660;6.778;2023-08-06T11:29:02;6.38;;;2.38;;
11305;SDS011;5708;50.660;6.778;2023-08-06T11:31:27;6.85;;;2.20;;
11305;SDS011;5708;50.660;6.778;2023-08-06T11:33:53;11.10;;;2.17;;
11305;SDS011;5708;50.660;6.778;2023-08-06T11:36:32;3.80;;;1.95;;
11305;SDS011;5708;50.660;6.778;2023-08-06T11:38:58;6.68;;;2.55;;
11305;SDS011;5708;50.660;6.778;2023-08-06T11:41:24;6.53;;;2.20;;
11305;SDS011;5708;50.660;6.778;2023-08-06T11:43:49;6.00;;;2.33;;
11305;SDS011;5708;50.660;6.778;2023-08-06T11:46:15;7.35;;;2.10;;
11305;SDS011;5708;50.660;6.778;2023-08-06T11:48:50;5.53;;;1.90;;
11305;SDS011;5708;50.660;6.778;2023-08-06T11:51:16;6.10;;;1.98;;
11305;SDS011;5708;50.660;6.778;2023-08-06T11:53:42;8.43;;;2.72;;
11305;SDS011;5708;50.660;6.778;2023-08-06T11:56:13;5.65;;;1.73;;
11305;SDS011;5708;50.660;6.778;2023-08-06T11:58:40;3.45;;;1.45;;
11305;SDS011;5708;50.660;6.778;2023-08-06T12:01:06;7.28;;;2.10;;
11305;SDS011;5708;50.660;6.778;2023-08-06T12:03:31;6.78;;;2.00;;
11305;SDS011;5708;50.660;6.778;2023-08-06T12:05:57;4.82;;;1.67;;
11305;SDS011;5708;50.660;6.778;2023-08-06T12:08:25;3.90;;;1.70;;
11305;SDS011;5708;50.660;6.778;2023-08-06T12:10:51;4.65;;;1.70;;
11305;SDS011;5708;50.660;6.778;2023-08-06T12:13:18;3.83;;;1.70;;
11305;SDS011;5708;50.660;6.778;2023-08-06T12:15:44;4.82;;;1.80;;
11305;SDS011;5708;50.660;6.778;2023-08-06T12:18:10;5.25;;;2.15;;
11305;SDS011;5708;50.660;6.778;2023-08-06T12:20:35;3.47;;;1.90;;
11305;SDS011;5708;50.660;6.778;2023-08-06T12:23:00;4.90;;;1.52;;
11305;SDS011;5708;50.660;6.778;2023-08-06T12:25:26;3.90;;;1.58;;
11305;SDS011;5708;50.660;6.778;2023-08-06T12:27:51;2.30;;;1.08;;
11305;SDS011;5708;50.660;6.778;2023-08-06T12:30:16;3.20;;;1.00;;
11305;SDS011;5708;50.660;6.778;2023-08-06T12:32:41;2.80;;;0.90;;
11305;SDS011;5708;50.660;6.778;2023-08-06T12:35:07;1.13;;;0.60;;
11305;SDS011;5708;50.660;6.778;2023-08-06T12:37:33;2.45;;;0.70;;
11305;SDS011;5708;50.660;6.778;2023-08-06T12:39:58;2.20;;;0.40;;
11305;SDS011;5708;50.660;6.778;2023-08-06T12:42:24;1.35;;;0.38;;
11305;SDS011;5708;50.660;6.778;2023-08-06T12:44:49;2.20;;;0.50;;
11305;SDS011;5708;50.660;6.778;2023-08-06T12:47:15;0.93;;;0.30;;
11305;SDS011;5708;50.660;6.778;2023-08-06T12:49:41;1.27;;;0.40;;
11305;SDS011;5708;50.660;6.778;2023-08-06T12:52:06;1.45;;;0.50;;
11305;SDS011;5708;50.660;6.778;2023-08-06T12:54:32;0.57;;;0.28;;
11305;SDS011;5708;50.660;6.778;2023-08-06T12:57:02;1.20;;;0.40;;
11305;SDS011;5708;50.660;6.778;2023-08-06T12:59:27;0.90;;;0.40;;
11305;SDS011;5708;50.660;6.778;2023-08-06T13:01:53;1.13;;;0.40;;
11305;SDS011;5708;50.660;6.778;2023-08-06T13:04:18;1.23;;;0.55;;
11305;SDS011;5708;50.660;6.778;2023-08-06T13:06:43;3.65;;;0.82;;
11305;SDS011;5708;50.660;6.778;2023-08-06T13:09:09;1.90;;;1.00;;
11305;SDS011;5708;50.660;6.778;2023-08-06T13:11:35;4.13;;;1.30;;
11305;SDS011;5708;50.660;6.778;2023-08-06T13:14:05;6.05;;;1.63;;
11305;SDS011;5708;50.660;6.778;2023-08-06T13:16:32;4.38;;;1.80;;
11305;SDS011;5708;50.660;6.778;2023-08-06T13:18:57;6.75;;;2.30;;
11305;SDS011;5708;50.660;6.778;2023-08-06T13:21:23;6.05;;;2.17;;
11305;SDS011;5708;50.660;6.778;2023-08-06T13:23:48;3.92;;;1.70;;
11305;SDS011;5708;50.660;6.778;2023-08-06T13:26:13;4.95;;;1.67;;
11305;SDS011;5708;50.660;6.778;2023-08-06T13:28:40;2.60;;;1.70;;
11305;SDS011;5708;50.660;6.778;2023-08-06T13:31:06;4.35;;;1.80;;
11305;SDS011;5708;50.660;6.778;2023-08-06T13:33:31;3.67;;;1.70;;
11305;SDS011;5708;50.660;6.778;2023-08-06T13:35:57;4.85;;;1.95;;
11305;SDS011;5708;50.660;6.778;2023-08-06T13:38:22;3.90;;;1.10;;
11305;SDS011;5708;50.660;6.778;2023-08-06T13:40:47;3.90;;;1.38;;
11305;SDS011;5708;50.660;6.778;2023-08-06T13:43:13;6.18;;;1.40;;
11305;SDS011;5708;50.660;6.778;2023-08-06T13:45:38;6.80;;;1.70;;
11305;SDS011;5708;50.660;6.778;2023-08-06T13:48:04;3.47;;;1.05;;
11305;SDS011;5708;50.660;6.778;2023-08-06T13:50:29;3.67;;;1.20;;
11305;SDS011;5708;50.660;6.778;2023-08-06T13:52:54;3.25;;;1.15;;
11305;SDS011;5708;50.660;6.778;2023-08-06T13:55:20;4.90;;;1.20;;
11305;SDS011;5708;50.660;6.778;2023-08-06T13:57:46;5.68;;;1.13;;
11305;SDS011;5708;50.660;6.778;2023-08-06T14:00:11;7.85;;;1.20;;
11305;SDS011;5708;50.660;6.778;2023-08-06T14:02:37;4.78;;;0.80;;
11305;SDS011;5708;50.660;6.778;2023-08-06T14:05:02;3.95;;;0.80;;
11305;SDS011;5708;50.660;6.778;2023-08-06T14:07:28;4.25;;;0.88;;
11305;SDS011;5708;50.660;6.778;2023-08-06T14:09:53;2.78;;;0.60;;
11305;SDS011;5708;50.660;6.778;2023-08-06T14:12:19;3.15;;;0.70;;
11305;SDS011;5708;50.660;6.778;2023-08-06T14:14:44;2.13;;;0.80;;
11305;SDS011;5708;50.660;6.778;2023-08-06T14:17:09;4.22;;;0.95;;
11305;SDS011;5708;50.660;6.778;2023-08-06T14:19:35;2.55;;;0.80;;
11305;SDS011;5708;50.660;6.778;2023-08-06T14:22:00;2.47;;;0.57;;
11305;SDS011;5708;50.660;6.778;2023-08-06T14:24:25;2.30;;;0.77;;
11305;SDS011;5708;50.660;6.778;2023-08-06T14:26:50;1.60;;;0.50;;
11305;SDS011;5708;50.660;6.778;2023-08-06T14:29:16;0.75;;;0.20;;
11305;SDS011;5708;50.660;6.778;2023-08-06T14:31:42;0.80;;;0.38;;
11305;SDS011;5708;50.660;6.778;2023-08-06T14:34:07;0.98;;;0.30;;
11305;SDS011;5708;50.660;6.778;2023-08-06T14:36:32;0.93;;;0.20;;
11305;SDS011;5708;50.660;6.778;2023-08-06T14:38:58;0.47;;;0.20;;
11305;SDS011;5708;50.660;6.778;2023-08-06T14:41:23;1.08;;;0.40;;
11305;SDS011;5708;50.660;6.778;2023-08-06T14:43:49;2.63;;;0.47;;
11305;SDS011;5708;50.660;6.778;2023-08-06T14:46:14;1.02;;;0.60;;
11305;SDS011;5708;50.660;6.778;2023-08-06T14:48:40;0.65;;;0.50;;
11305;SDS011;5708;50.660;6.778;2023-08-06T14:51:05;1.48;;;0.43;;
11305;SDS011;5708;50.660;6.778;2023-08-06T14:53:30;1.05;;;0.30;;
11305;SDS011;5708;50.660;6.778;2023-08-06T14:55:56;1.77;;;0.40;;
11305;SDS011;5708;50.660;6.778;2023-08-06T14:58:21;0.98;;;0.40;;
11305;SDS011;5708;50.660;6.778;2023-08-06T15:00:46;1.58;;;0.52;;